Time;durP1;ratioP1;P1;durP2;ratioP2;P2;SDS_P1;SDS_P2;PMS_P1;PMS_P2;Temp;Humidity;BMP_temperature;BMP_pressure;BME280_temperature;BME280_humidity;BME280_pressure;Samples;Min_cycle;Max_cycle;Signal;HPM_P1;HPM_P2
2021/03/08 00:01:52;;;;;;;14.32;8.52;;;5.10;51.00;;;;;;5035485;28;20029;-79
2021/03/08 00:04:17;;;;;;;13.70;7.93;;;5.10;51.00;;;;;;5034800;28;20451;-79
2021/03/08 00:06:43;;;;;;;12.60;7.85;;;5.00;50.90;;;;;;5034634;28;20052;-80
2021/03/08 00:09:09;;;;;;;16.05;8.45;;;5.00;51.00;;;;;;5034816;28;20071;-80
2021/03/08 00:11:34;;;;;;;13.88;8.23;;;5.00;51.10;;;;;;5034712;28;20021;-79
2021/03/08 00:14:00;;;;;;;12.13;7.63;;;5.00;51.20;;;;;;5035397;28;20479;-79
2021/03/08 00:16:26;;;;;;;11.63;7.60;;;4.90;51.20;;;;;;5034374;28;20056;-80
2021/03/08 00:18:51;;;;;;;12.07;7.90;;;4.90;51.30;;;;;;5034672;28;20021;-79
2021/03/08 00:21:17;;;;;;;13.18;7.20;;;4.90;51.40;;;;;;5035016;28;20459;-80
2021/03/08 00:23:43;;;;;;;16.90;8.68;;;4.90;51.40;;;;;;5034349;28;20021;-80
2021/03/08 00:26:08;;;;;;;15.55;8.60;;;4.80;51.40;;;;;;5033166;28;20037;-79
2021/03/08 00:28:34;;;;;;;15.02;8.50;;;4.80;51.50;;;;;;5034925;28;20032;-80
2021/03/08 00:31:00;;;;;;;17.33;8.90;;;4.80;51.50;;;;;;5034920;28;20040;-80
2021/03/08 00:33:25;;;;;;;14.70;8.00;;;4.80;51.60;;;;;;5033422;28;20029;-86
2021/03/08 00:35:51;;;;;;;13.95;8.80;;;4.80;51.60;;;;;;5034518;28;20037;-80
2021/03/08 00:38:17;;;;;;;14.20;8.38;;;4.80;51.70;;;;;;5035121;28;20125;-80
2021/03/08 00:40:42;;;;;;;14.18;8.68;;;4.80;51.70;;;;;;5034690;28;20022;-80
2021/03/08 00:43:08;;;;;;;18.50;8.98;;;4.80;51.90;;;;;;5047654;28;20033;-80
2021/03/08 00:45:34;;;;;;;13.48;8.75;;;4.80;51.90;;;;;;5039511;28;20026;-80
2021/03/08 00:51:36;;;;;;;14.00;8.43;;;4.80;52.10;;;;;;5061344;28;20063;-80
2021/03/08 00:54:02;;;;;;;15.30;9.35;;;4.80;52.00;;;;;;5052768;28;20021;-80
2021/03/08 00:56:28;;;;;;;15.13;9.35;;;4.80;52.00;;;;;;5054250;28;20075;-82
2021/03/08 00:58:53;;;;;;;15.60;8.82;;;4.80;52.10;;;;;;5053565;28;20021;-80
2021/03/08 01:01:19;;;;;;;13.75;8.70;;;4.80;52.10;;;;;;5065109;28;20450;-80
2021/03/08 01:03:45;;;;;;;15.07;8.88;;;4.80;52.10;;;;;;5074059;28;20100;-80
2021/03/08 01:06:11;;;;;;;17.40;9.20;;;4.80;52.10;;;;;;5062736;28;20037;-79
2021/03/08 01:08:37;;;;;;;15.90;9.23;;;4.80;52.20;;;;;;5052643;28;20462;-80
2021/03/08 01:11:03;;;;;;;13.40;8.70;;;4.80;52.20;;;;;;5053864;28;20099;-79
2021/03/08 01:13:28;;;;;;;17.85;9.30;;;4.80;52.20;;;;;;5053908;28;20076;-85
2021/03/08 01:15:54;;;;;;;16.67;9.13;;;4.80;52.20;;;;;;5053892;28;20021;-79
2021/03/08 01:18:20;;;;;;;17.98;9.38;;;4.80;52.30;;;;;;5053995;28;20381;-79
2021/03/08 01:20:47;;;;;;;16.17;9.32;;;4.80;52.30;;;;;;5054320;28;20063;-79
2021/03/08 01:23:13;;;;;;;18.35;9.88;;;4.80;52.40;;;;;;5053776;28;20076;-81
2021/03/08 01:25:39;;;;;;;14.75;8.98;;;4.80;52.40;;;;;;5073825;28;20060;-79
2021/03/08 01:28:06;;;;;;;15.07;9.38;;;4.80;52.50;;;;;;5073781;28;20439;-79
2021/03/08 01:30:41;;;;;;;14.80;9.20;;;4.80;52.50;;;;;;5072764;28;20462;-79
2021/03/08 01:33:06;;;;;;;;;;;4.70;52.50;;;;;;5074901;28;20158;-80
2021/03/08 01:35:35;;;;;;;14.88;9.65;;;4.80;52.50;;;;;;5073374;28;20349;-80
2021/03/08 01:38:02;;;;;;;16.52;9.73;;;4.80;52.50;;;;;;5072398;28;20024;-79
2021/03/08 01:40:30;;;;;;;15.80;9.23;;;4.70;53.20;;;;;;5073725;28;20048;-79
2021/03/08 01:42:57;;;;;;;15.60;9.80;;;4.70;53.30;;;;;;5072309;28;20024;-80
2021/03/08 01:45:24;;;;;;;15.05;9.38;;;4.70;52.80;;;;;;5073235;28;20024;-79
2021/03/08 01:47:51;;;;;;;15.18;9.57;;;4.70;52.90;;;;;;5073531;28;20059;-79
2021/03/08 01:50:28;;;;;;;18.58;9.63;;;4.70;53.00;;;;;;5073463;28;20086;-79
2021/03/08 01:52:55;;;;;;;15.27;9.55;;;4.60;53.00;;;;;;5073650;28;20048;-80
2021/03/08 01:55:21;;;;;;;18.48;9.95;;;4.70;53.00;;;;;;5073505;28;20103;-80
2021/03/08 01:57:47;;;;;;;17.35;10.48;;;4.60;53.10;;;;;;5072287;28;20025;-80
2021/03/08 02:00:13;;;;;;;16.70;9.73;;;4.60;53.20;;;;;;5073715;28;20017;-80
2021/03/08 02:02:40;;;;;;;19.73;10.73;;;4.50;53.20;;;;;;5073627;28;20029;-80
2021/03/08 02:05:09;;;;;;;22.00;10.15;;;4.50;53.40;;;;;;5073002;28;20020;-80
2021/03/08 02:07:35;;;;;;;16.50;8.82;;;4.50;53.50;;;;;;5072892;28;20037;-80
2021/03/08 02:10:01;;;;;;;16.02;9.10;;;4.50;53.50;;;;;;5074328;28;20025;-80
2021/03/08 02:12:46;;;;;;;17.90;10.35;;;4.50;53.50;;;;;;5077062;28;20500;-80
2021/03/08 02:15:42;;;;;;;14.23;8.60;;;4.50;53.60;;;;;;5064116;28;20506;-80
2021/03/08 02:18:12;;;;;;;17.20;9.73;;;4.60;53.60;;;;;;5047641;28;20471;-80
2021/03/08 02:20:40;;;;;;;15.48;9.98;;;4.50;53.50;;;;;;5055658;28;20021;-80
2021/03/08 02:23:42;;;;;;;15.88;9.00;;;4.50;53.60;;;;;;5057120;28;20146;-80
2021/03/08 02:26:21;;;;;;;14.75;8.40;;;4.50;53.70;;;;;;5057023;28;20060;-80
2021/03/08 02:28:46;;;;;;;15.95;9.50;;;4.50;53.70;;;;;;5057046;28;20024;-80
2021/03/08 02:31:20;;;;;;;16.05;9.48;;;4.50;53.70;;;;;;5055594;28;20077;-80
2021/03/08 02:33:52;;;;;;;17.07;9.40;;;4.40;53.80;;;;;;5056770;28;20032;-80
2021/03/08 02:36:20;;;;;;;17.20;9.07;;;4.50;53.90;;;;;;5056958;28;20096;-80
2021/03/08 02:38:53;;;;;;;15.13;9.88;;;4.50;53.90;;;;;;5056982;28;20456;-80
2021/03/08 02:41:21;;;;;;;14.93;9.50;;;4.50;54.00;;;;;;5055541;28;20017;-79
2021/03/08 02:43:53;;;;;;;16.65;9.18;;;4.50;53.90;;;;;;5055396;28;20032;-79
2021/03/08 02:46:30;;;;;;;16.52;9.95;;;4.50;54.00;;;;;;5056753;28;20043;-79
2021/03/08 02:49:00;;;;;;;15.57;9.80;;;4.50;54.10;;;;;;5057036;28;20021;-80
2021/03/08 02:51:27;;;;;;;15.65;9.15;;;4.50;54.00;;;;;;5062425;28;20036;-80
2021/03/08 02:53:57;;;;;;;16.17;9.40;;;4.60;54.10;;;;;;5062800;28;20057;-80
2021/03/08 02:56:28;;;;;;;14.38;9.15;;;4.50;54.10;;;;;;5083058;28;20017;-80
2021/03/08 02:58:55;;;;;;;18.02;9.68;;;4.50;54.20;;;;;;5076655;28;20435;-80
2021/03/08 03:01:21;;;;;;;16.50;9.70;;;4.50;54.20;;;;;;5076290;28;20024;-80
2021/03/08 03:03:52;;;;;;;16.08;9.45;;;4.50;54.30;;;;;;5075501;28;20021;-80
2021/03/08 03:06:20;;;;;;;13.80;9.05;;;4.40;54.40;;;;;;5076156;28;20032;-80
2021/03/08 03:08:47;;;;;;;16.58;9.93;;;4.40;54.40;;;;;;5076705;28;20016;-80
2021/03/08 03:11:14;;;;;;;13.15;8.75;;;4.40;54.50;;;;;;5076498;28;20032;-80
2021/03/08 03:13:42;;;;;;;15.35;9.15;;;4.30;54.50;;;;;;5076245;28;20056;-80
2021/03/08 03:16:10;;;;;;;17.05;9.73;;;4.30;54.60;;;;;;5077095;28;20150;-80
2021/03/08 03:18:37;;;;;;;16.73;9.98;;;4.30;54.70;;;;;;5076105;28;20462;-80
2021/03/08 03:21:07;;;;;;;15.85;9.75;;;4.20;54.80;;;;;;5075306;28;20020;-80
2021/03/08 03:23:37;;;;;;;14.25;8.65;;;4.10;54.90;;;;;;5076025;28;20107;-80
2021/03/08 03:26:06;;;;;;;15.50;9.27;;;4.10;55.10;;;;;;5075958;28;20020;-80
2021/03/08 03:28:33;;;;;;;14.57;8.90;;;4.00;55.20;;;;;;5076060;28;20020;-80
2021/03/08 03:30:59;;;;;;;15.95;9.70;;;3.90;55.30;;;;;;5075797;28;20491;-80
2021/03/08 03:33:29;;;;;;;15.43;9.68;;;3.80;55.60;;;;;;5075954;28;20025;-80
2021/03/08 03:35:56;;;;;;;13.30;8.82;;;3.70;55.70;;;;;;5076125;28;20027;-80
2021/03/08 03:38:23;;;;;;;17.05;10.30;;;3.60;55.80;;;;;;5075710;28;20030;-80
2021/03/08 03:40:50;;;;;;;13.30;8.63;;;3.60;56.10;;;;;;5075689;28;20092;-79
2021/03/08 03:43:16;;;;;;;13.75;8.77;;;3.50;56.30;;;;;;5076029;28;20025;-79
2021/03/08 03:45:43;;;;;;;14.70;9.32;;;3.50;56.30;;;;;;5074489;28;20478;-80
2021/03/08 03:48:09;;;;;;;20.38;9.95;;;3.50;56.50;;;;;;5075384;28;20021;-80
2021/03/08 03:50:37;;;;;;;16.55;9.07;;;3.50;56.60;;;;;;5076030;28;20017;-80
2021/03/08 03:53:09;;;;;;;17.73;9.48;;;3.40;56.60;;;;;;5075998;28;20020;-79
2021/03/08 03:55:35;;;;;;;14.50;9.48;;;3.40;56.70;;;;;;5075482;28;20017;-79
2021/03/08 03:58:06;;;;;;;17.08;9.93;;;3.40;56.80;;;;;;5075017;28;20025;-79
2021/03/08 04:00:40;;;;;;;16.67;9.60;;;3.30;56.90;;;;;;5075694;28;20017;-80
2021/03/08 04:03:08;;;;;;;14.88;8.95;;;3.30;57.00;;;;;;5075551;28;20107;-80
2021/03/08 04:05:35;;;;;;;20.00;10.18;;;3.20;57.00;;;;;;5075480;28;20021;-80
2021/03/08 04:08:03;;;;;;;16.55;9.57;;;3.20;57.10;;;;;;5075037;28;20028;-80
2021/03/08 04:10:30;;;;;;;16.50;10.18;;;3.20;57.30;;;;;;5074238;28;20027;-80
2021/03/08 04:13:04;;;;;;;17.48;10.10;;;3.10;57.30;;;;;;5074833;28;20072;-80
2021/03/08 04:15:31;;;;;;;15.60;9.50;;;3.10;57.40;;;;;;5074640;28;20021;-80
2021/03/08 04:17:59;;;;;;;17.55;9.45;;;3.10;57.50;;;;;;5074421;28;20250;-79
2021/03/08 04:20:27;;;;;;;16.88;9.60;;;3.10;57.60;;;;;;5074489;28;20032;-79
2021/03/08 04:22:55;;;;;;;15.60;9.85;;;3.00;57.70;;;;;;5074886;28;20096;-81
2021/03/08 04:25:21;;;;;;;17.70;9.55;;;3.00;57.90;;;;;;5054899;28;20032;-80
2021/03/08 04:27:48;;;;;;;19.30;10.15;;;3.00;57.90;;;;;;5054855;28;20056;-81
2021/03/08 04:30:15;;;;;;;14.82;9.25;;;2.90;58.00;;;;;;5054810;28;20111;-80
2021/03/08 04:32:42;;;;;;;16.98;10.32;;;3.00;58.20;;;;;;5054539;28;20416;-80
2021/03/08 04:35:09;;;;;;;15.55;9.85;;;3.00;58.20;;;;;;5053456;28;20417;-80
2021/03/08 04:37:37;;;;;;;17.27;10.40;;;3.00;58.30;;;;;;5054637;28;20040;-80
2021/03/08 04:40:04;;;;;;;16.65;9.48;;;3.00;58.20;;;;;;5054528;28;20039;-79
2021/03/08 04:42:30;;;;;;;14.57;8.90;;;3.10;58.30;;;;;;5054413;28;20020;-80
2021/03/08 04:44:56;;;;;;;16.90;9.50;;;3.10;58.20;;;;;;5054672;28;20121;-80
2021/03/08 04:47:22;;;;;;;17.92;9.95;;;3.10;58.20;;;;;;5054645;28;20028;-80
2021/03/08 04:49:49;;;;;;;16.45;9.18;;;3.20;58.20;;;;;;5055029;28;20013;-80
2021/03/08 04:52:18;;;;;;;17.25;9.95;;;3.20;58.00;;;;;;5055287;28;20021;-80
2021/03/08 04:54:45;;;;;;;16.85;10.05;;;3.20;58.00;;;;;;5054170;28;20031;-82
2021/03/08 04:57:15;;;;;;;16.00;9.80;;;3.20;57.90;;;;;;5054866;28;20485;-80
2021/03/08 04:59:41;;;;;;;17.05;9.52;;;3.20;58.00;;;;;;5054870;28;20075;-80
2021/03/08 05:02:09;;;;;;;18.00;9.43;;;3.10;57.90;;;;;;5058943;28;20021;-80
2021/03/08 05:04:39;;;;;;;17.00;10.10;;;3.10;58.00;;;;;;5053409;28;20082;-78
2021/03/08 05:07:09;;;;;;;16.38;9.88;;;3.20;58.20;;;;;;5053994;28;20056;-79
2021/03/08 05:09:36;;;;;;;18.50;11.40;;;3.20;58.20;;;;;;5054072;28;20024;-79
2021/03/08 05:12:06;;;;;;;20.77;10.68;;;3.20;58.20;;;;;;5055820;28;20100;-80
2021/03/08 05:14:33;;;;;;;18.42;10.55;;;3.30;58.20;;;;;;5062639;28;20063;-79
2021/03/08 05:17:02;;;;;;;16.77;10.02;;;3.40;58.10;;;;;;5065881;28;20079;-79
2021/03/08 05:19:27;;;;;;;20.45;10.25;;;3.40;58.00;;;;;;5052047;28;20074;-79
2021/03/08 05:21:54;;;;;;;16.15;9.75;;;3.50;58.00;;;;;;5053564;28;20108;-80
2021/03/08 05:24:21;;;;;;;18.63;10.48;;;3.50;57.90;;;;;;5053908;28;20029;-79
2021/03/08 05:26:47;;;;;;;22.90;10.55;;;3.60;57.80;;;;;;5053268;28;20032;-80
2021/03/08 05:29:13;;;;;;;15.93;10.05;;;3.70;57.70;;;;;;5056313;28;20059;-80
2021/03/08 05:31:44;;;;;;;15.93;9.82;;;3.70;57.50;;;;;;5064054;28;20032;-80
2021/03/08 05:34:12;;;;;;;21.00;10.68;;;3.80;57.40;;;;;;5064646;28;20021;-79
2021/03/08 05:36:43;;;;;;;16.88;10.18;;;3.90;57.30;;;;;;5065185;28;20032;-80
2021/03/08 05:39:12;;;;;;;18.92;10.45;;;4.00;57.10;;;;;;5066079;28;20027;-80
2021/03/08 05:42:10;;;;;;;18.48;9.98;;;4.10;57.00;;;;;;5062179;28;20063;-79
2021/03/08 05:44:40;;;;;;;17.48;10.25;;;4.20;56.70;;;;;;5065787;28;20464;-80
2021/03/08 05:47:25;;;;;;;19.63;10.75;;;4.30;56.60;;;;;;5066152;28;20127;-81
2021/03/08 05:50:20;;;;;;;;;;;4.50;56.30;;;;;;5078377;28;20032;-80
2021/03/08 05:53:30;;;;;;;16.20;9.90;;;4.60;56.10;;;;;;5058142;28;20301;-81
2021/03/08 05:56:19;;;;;;;18.58;10.10;;;4.60;55.80;;;;;;5068441;28;20059;-79
2021/03/08 05:59:21;;;;;;;20.35;10.63;;;4.70;55.50;;;;;;5077139;28;20096;-79
2021/03/08 06:02:09;;;;;;;14.52;10.05;;;4.80;55.40;;;;;;5074354;28;20023;-85
2021/03/08 06:04:56;;;;;;;22.88;11.57;;;4.80;55.20;;;;;;5076602;28;20032;-80
2021/03/08 06:07:46;;;;;;;17.15;10.68;;;4.90;55.20;;;;;;5062192;28;20108;-80
2021/03/08 06:10:45;;;;;;;22.45;10.82;;;5.00;55.00;;;;;;5067494;28;20367;-80
2021/03/08 06:13:15;;;;;;;16.88;10.07;;;5.10;54.80;;;;;;5076912;28;20079;-81
2021/03/08 06:15:43;;;;;;;18.58;10.00;;;5.10;54.50;;;;;;5076900;28;20036;-80
2021/03/08 06:18:09;;;;;;;19.10;10.77;;;5.10;54.50;;;;;;5077030;28;20070;-81
2021/03/08 06:20:36;;;;;;;22.50;11.77;;;5.20;54.50;;;;;;5076907;28;20031;-81
2021/03/08 06:23:03;;;;;;;16.70;9.73;;;5.20;54.30;;;;;;5076822;28;20046;-81
2021/03/08 06:25:29;;;;;;;24.13;10.93;;;5.20;54.30;;;;;;5076798;28;20098;-81
2021/03/08 06:27:57;;;;;;;19.77;11.80;;;5.20;54.10;;;;;;5075407;28;20111;-80
2021/03/08 06:30:24;;;;;;;20.05;10.60;;;5.30;54.30;;;;;;5076291;28;20477;-80
2021/03/08 06:32:50;;;;;;;18.60;10.50;;;5.30;54.10;;;;;;5076525;28;20435;-80
2021/03/08 06:35:16;;;;;;;17.38;10.80;;;5.20;54.00;;;;;;5076212;28;20056;-81
2021/03/08 06:37:42;;;;;;;19.00;10.85;;;5.20;54.20;;;;;;5076170;28;20021;-81
2021/03/08 06:40:11;;;;;;;15.98;9.10;;;5.20;54.20;;;;;;5074994;28;20073;-81
2021/03/08 06:42:38;;;;;;;19.17;10.05;;;5.20;54.20;;;;;;5076101;28;20553;-79
2021/03/08 06:45:06;;;;;;;24.58;10.93;;;5.20;54.10;;;;;;5075046;28;20024;-81
2021/03/08 06:47:32;;;;;;;17.40;10.50;;;5.20;54.10;;;;;;5076097;28;20389;-81
2021/03/08 06:49:58;;;;;;;22.70;11.27;;;5.20;54.20;;;;;;5076127;28;20027;-80
2021/03/08 06:52:38;;;;;;;20.55;11.00;;;5.20;54.30;;;;;;5075789;28;20067;-80
2021/03/08 06:55:04;;;;;;;17.45;10.63;;;5.20;54.50;;;;;;5076003;28;20033;-80
2021/03/08 06:57:31;;;;;;;18.83;11.27;;;5.20;54.40;;;;;;5076275;28;20024;-80
2021/03/08 07:00:05;;;;;;;21.05;11.35;;;5.20;54.50;;;;;;5075617;28;20028;-79
2021/03/08 07:02:36;;;;;;;21.83;12.13;;;5.30;54.50;;;;;;5075924;28;20033;-80
2021/03/08 07:05:03;;;;;;;18.42;11.00;;;5.40;54.60;;;;;;5075958;28;20024;-80
2021/03/08 07:07:45;;;;;;;20.77;11.75;;;5.40;54.50;;;;;;5075576;28;20481;-82
2021/03/08 07:10:12;;;;;;;18.13;10.55;;;5.50;54.50;;;;;;5078251;28;20094;-80
2021/03/08 07:12:48;;;;;;;19.70;11.25;;;5.60;54.40;;;;;;5075583;28;20044;-80
2021/03/08 07:15:14;;;;;;;19.33;11.60;;;5.60;54.20;;;;;;5076079;28;20122;-79
2021/03/08 07:17:40;;;;;;;17.33;11.27;;;5.60;54.20;;;;;;5075673;28;20366;-81
2021/03/08 07:20:08;;;;;;;21.50;11.75;;;5.60;54.20;;;;;;5075298;28;20028;-80
2021/03/08 07:22:51;;;;;;;20.05;11.45;;;5.60;54.30;;;;;;5075494;28;20442;-82
2021/03/08 07:25:22;;;;;;;19.38;11.68;;;5.60;54.50;;;;;;5075123;28;20025;-81
2021/03/08 07:27:53;;;;;;;21.27;12.95;;;5.60;54.50;;;;;;5075702;28;20060;-82
2021/03/08 07:30:27;;;;;;;22.38;13.43;;;5.60;54.50;;;;;;5075653;28;20094;-80
2021/03/08 07:32:57;;;;;;;21.02;11.20;;;5.70;54.60;;;;;;5075112;28;20094;-83
2021/03/08 07:35:36;;;;;;;21.73;12.10;;;5.80;54.40;;;;;;5074060;28;20123;-79
2021/03/08 07:38:03;;;;;;;20.88;11.48;;;5.80;54.30;;;;;;5077551;28;20028;-81
2021/03/08 07:40:28;;;;;;;20.67;11.45;;;5.90;54.10;;;;;;5075662;28;20028;-80
2021/03/08 07:42:54;;;;;;;23.65;12.75;;;5.90;54.20;;;;;;5075296;28;20127;-84
2021/03/08 07:45:23;;;;;;;22.73;12.70;;;5.90;54.20;;;;;;5073638;28;20052;-79
2021/03/08 07:48:08;;;;;;;27.42;12.77;;;5.90;54.10;;;;;;5073785;28;20070;-80
2021/03/08 07:50:34;;;;;;;29.77;13.35;;;5.90;54.10;;;;;;5073763;28;20044;-82
2021/03/08 07:53:00;;;;;;;20.38;11.70;;;5.90;54.70;;;;;;5075032;28;20351;-83
2021/03/08 07:55:36;;;;;;;18.92;11.85;;;5.80;54.10;;;;;;5075181;28;20029;-82
2021/03/08 07:58:04;;;;;;;20.25;11.93;;;5.80;54.20;;;;;;5075003;28;20021;-80
2021/03/08 08:00:31;;;;;;;21.10;12.23;;;5.90;54.20;;;;;;5074553;28;20028;-79
2021/03/08 08:03:00;;;;;;;21.05;12.07;;;5.80;54.20;;;;;;5074428;28;20016;-81
2021/03/08 08:05:25;;;;;;;21.35;12.45;;;5.80;54.30;;;;;;5074833;28;20028;-80
2021/03/08 08:07:55;;;;;;;21.40;12.90;;;5.90;54.50;;;;;;5074185;28;20036;-80
2021/03/08 08:10:22;;;;;;;23.88;13.05;;;6.00;54.50;;;;;;5074701;28;20032;-80
2021/03/08 08:12:50;;;;;;;24.17;12.63;;;6.10;54.40;;;;;;5074468;28;20420;-79
2021/03/08 08:15:17;;;;;;;16.20;10.80;;;6.20;54.50;;;;;;5074387;28;20472;-80
2021/03/08 08:17:45;;;;;;;17.63;12.07;;;6.30;54.30;;;;;;5074389;28;20029;-81
2021/03/08 08:20:13;;;;;;;21.27;12.80;;;6.40;54.10;;;;;;5074405;28;20024;-80
2021/03/08 08:22:51;;;;;;;20.73;12.23;;;6.50;54.10;;;;;;5074384;28;20017;-81
2021/03/08 08:25:18;;;;;;;23.90;12.25;;;6.60;54.00;;;;;;5074240;28;20343;-80
2021/03/08 08:27:46;;;;;;;18.50;11.90;;;6.70;53.90;;;;;;5074405;28;20103;-80
2021/03/08 08:30:12;;;;;;;21.67;13.07;;;6.80;53.60;;;;;;5075709;28;20028;-80
2021/03/08 08:32:48;;;;;;;23.00;13.52;;;7.00;53.60;;;;;;5073883;28;20021;-82
2021/03/08 08:35:25;;;;;;;19.63;11.70;;;7.10;53.30;;;;;;5073936;28;20024;-84
2021/03/08 08:38:07;;;;;;;19.35;11.35;;;7.20;53.10;;;;;;5073217;28;20060;-79
2021/03/08 08:40:37;;;;;;;22.92;11.57;;;7.30;53.10;;;;;;5074571;28;20028;-81
2021/03/08 08:43:14;;;;;;;19.10;12.13;;;7.40;52.70;;;;;;5073902;28;20157;-81
2021/03/08 08:45:45;;;;;;;21.95;12.30;;;7.50;52.50;;;;;;5072626;28;20032;-81
2021/03/08 08:48:11;;;;;;;23.92;11.63;;;7.60;52.50;;;;;;5072470;28;20036;-81
2021/03/08 08:50:44;;;;;;;19.85;11.45;;;7.70;52.10;;;;;;5074052;28;20067;-82
2021/03/08 08:53:10;;;;;;;16.83;11.02;;;7.70;51.90;;;;;;5073710;28;20474;-80
2021/03/08 08:55:36;;;;;;;16.10;10.05;;;7.70;51.80;;;;;;5074039;28;20028;-80
2021/03/08 08:58:24;;;;;;;21.25;11.07;;;7.70;51.70;;;;;;5061619;28;20025;-82
2021/03/08 09:01:12;;;;;;;17.38;10.52;;;7.70;51.60;;;;;;5072616;28;20021;-81
2021/03/08 09:04:03;;;;;;;17.35;9.82;;;7.70;51.80;;;;;;5073293;28;20027;-81
2021/03/08 09:06:53;;;;;;;17.60;11.38;;;7.80;51.70;;;;;;5072849;28;20035;-79
2021/03/08 09:09:32;;;;;;;17.25;10.20;;;7.90;51.70;;;;;;5072415;28;20459;-81
2021/03/08 09:12:06;;;;;;;17.95;10.27;;;8.10;51.70;;;;;;5073979;28;20093;-80
2021/03/08 09:14:47;;;;;;;14.00;9.80;;;8.20;51.20;;;;;;5073971;28;20343;-81
2021/03/08 09:17:18;;;;;;;17.42;10.07;;;8.20;51.00;;;;;;5068722;28;20077;-82
2021/03/08 09:19:50;;;;;;;20.90;11.23;;;8.20;50.90;;;;;;5055331;28;20013;-80
2021/03/08 09:22:25;;;;;;;16.98;12.20;;;8.30;51.00;;;;;;5054207;28;20443;-80
2021/03/08 09:25:11;;;;;;;20.55;11.18;;;8.30;51.00;;;;;;5052201;28;20136;-84
2021/03/08 09:27:49;;;;;;;16.85;10.75;;;8.40;50.70;;;;;;5053675;28;20328;-80
2021/03/08 09:30:18;;;;;;;18.45;11.65;;;8.50;50.50;;;;;;5053031;28;20359;-81
2021/03/08 09:32:51;;;;;;;22.05;11.20;;;8.60;50.30;;;;;;5053630;28;20025;-81
2021/03/08 09:35:19;;;;;;;17.45;10.23;;;8.50;50.10;;;;;;5053193;28;20020;-81
2021/03/08 09:37:47;;;;;;;22.05;10.55;;;8.50;50.00;;;;;;5053603;28;20017;-81
2021/03/08 09:40:21;;;;;;;15.95;10.10;;;8.30;49.90;;;;;;5053890;28;20064;-80
2021/03/08 09:42:47;;;;;;;17.52;10.18;;;8.20;50.00;;;;;;5053201;28;20027;-80
2021/03/08 09:45:20;;;;;;;14.88;10.10;;;8.00;50.00;;;;;;5051803;28;20029;-80
2021/03/08 09:47:47;;;;;;;14.80;9.70;;;7.70;50.20;;;;;;5053244;28;20047;-81
2021/03/08 09:50:17;;;;;;;16.55;10.43;;;7.50;50.60;;;;;;5052957;28;20465;-81
2021/03/08 09:52:45;;;;;;;17.73;11.07;;;7.30;51.00;;;;;;5053103;28;20037;-82
2021/03/08 09:55:16;;;;;;;18.20;10.50;;;7.20;51.30;;;;;;5052704;28;20378;-81
2021/03/08 09:57:44;;;;;;;18.83;11.57;;;7.00;51.70;;;;;;5053182;28;20025;-80
2021/03/08 10:00:18;;;;;;;22.38;12.95;;;6.90;52.00;;;;;;5052678;28;20108;-80
2021/03/08 10:02:45;;;;;;;18.50;10.52;;;6.90;52.40;;;;;;5052950;28;20020;-80
2021/03/08 10:05:14;;;;;;;18.48;12.15;;;6.80;52.50;;;;;;5051083;28;20040;-80
2021/03/08 10:07:54;;;;;;;19.48;11.23;;;6.70;52.60;;;;;;5053150;28;20359;-81
2021/03/08 10:10:22;;;;;;;20.00;12.48;;;6.70;52.90;;;;;;5052814;28;20100;-81
2021/03/08 10:13:01;;;;;;;19.33;12.65;;;6.60;53.10;;;;;;5052596;28;20119;-82
2021/03/08 10:15:37;;;;;;;18.83;12.70;;;6.60;53.40;;;;;;5052710;28;20115;-81
2021/03/08 10:18:03;;;;;;;19.25;11.48;;;6.60;53.30;;;;;;5052894;28;20025;-85
2021/03/08 10:20:32;;;;;;;16.55;10.70;;;6.60;53.40;;;;;;5056855;28;20032;-81
2021/03/08 10:22:58;;;;;;;19.75;11.73;;;6.50;53.50;;;;;;5055475;28;20086;-81
2021/03/08 10:25:28;;;;;;;21.00;12.73;;;6.50;53.70;;;;;;5052315;28;20155;-80
2021/03/08 10:27:59;;;;;;;29.00;17.25;;;6.40;53.80;;;;;;5052587;28;20119;-81
2021/03/08 10:30:28;;;;;;;26.90;16.10;;;6.40;54.00;;;;;;5054499;28;20393;-81
2021/03/08 10:33:01;;;;;;;20.17;12.02;;;6.50;54.20;;;;;;5056521;28;20021;-79
2021/03/08 10:35:27;;;;;;;23.83;14.13;;;6.50;54.30;;;;;;5056862;28;20127;-80
2021/03/08 10:37:54;;;;;;;19.65;11.18;;;6.40;54.30;;;;;;5056795;28;20415;-79
2021/03/08 10:40:22;;;;;;;18.77;11.60;;;6.40;54.40;;;;;;5056793;28;20025;-80
2021/03/08 10:42:48;;;;;;;19.48;12.25;;;6.30;54.60;;;;;;5056398;28;20106;-80
2021/03/08 10:45:15;;;;;;;22.67;13.18;;;6.30;54.80;;;;;;5038330;28;20024;-80
2021/03/08 10:47:41;;;;;;;21.00;13.77;;;6.30;55.00;;;;;;5056252;28;20043;-83
2021/03/08 10:50:07;;;;;;;22.38;13.38;;;6.20;55.30;;;;;;5055084;28;20025;-81
2021/03/08 10:52:33;;;;;;;19.30;11.05;;;6.20;55.60;;;;;;5056302;28;20399;-81
2021/03/08 10:54:59;;;;;;;14.27;7.82;;;6.10;55.60;;;;;;5056875;28;20028;-80
2021/03/08 10:57:27;;;;;;;10.70;6.70;;;6.00;55.40;;;;;;5055024;28;20021;-81
2021/03/08 10:59:57;;;;;;;11.13;7.38;;;5.90;55.30;;;;;;5055811;28;20027;-80
2021/03/08 11:02:24;;;;;;;8.98;5.95;;;5.70;55.10;;;;;;5054674;28;20112;-81
2021/03/08 11:04:52;;;;;;;10.75;5.15;;;5.60;54.80;;;;;;5056302;28;20021;-80
2021/03/08 11:07:31;;;;;;;11.40;6.03;;;5.50;54.80;;;;;;5059716;28;20029;-81
2021/03/08 11:09:57;;;;;;;11.98;6.57;;;5.40;54.80;;;;;;5072775;28;20091;-80
2021/03/08 11:12:24;;;;;;;7.20;4.53;;;5.40;54.80;;;;;;5072352;28;20048;-80
2021/03/08 11:14:54;;;;;;;5.75;3.20;;;5.50;54.70;;;;;;5070770;28;20048;-81
2021/03/08 11:17:49;;;;;;;8.23;5.43;;;5.50;53.90;;;;;;5055448;28;20374;-82
2021/03/08 11:20:22;;;;;;;5.93;3.17;;;5.40;53.50;;;;;;5050610;28;20037;-82
2021/03/08 11:23:23;;;;;;;5.68;2.45;;;5.30;53.10;;;;;;5064084;28;20513;-80
2021/03/08 11:25:48;;;;;;;5.95;2.78;;;5.20;52.60;;;;;;5067516;28;20036;-80
2021/03/08 11:28:16;;;;;;;5.00;2.97;;;5.20;52.60;;;;;;5064538;28;20029;-81
2021/03/08 11:30:50;;;;;;;4.50;2.88;;;5.10;52.50;;;;;;5069111;28;20017;-81
2021/03/08 11:33:17;;;;;;;6.82;3.47;;;5.10;52.10;;;;;;5063328;28;20024;-80
2021/03/08 11:35:49;;;;;;;5.95;3.55;;;5.10;52.10;;;;;;5064180;28;20047;-81
2021/03/08 11:38:18;;;;;;;6.80;3.80;;;5.10;52.00;;;;;;5059383;28;20017;-80
2021/03/08 11:40:46;;;;;;;6.38;3.58;;;5.10;51.90;;;;;;5065890;28;20009;-81
2021/03/08 11:43:15;;;;;;;8.27;4.70;;;5.10;51.90;;;;;;5060252;28;20021;-81
2021/03/08 11:45:41;;;;;;;9.23;5.22;;;5.10;51.70;;;;;;5059931;28;20029;-81
2021/03/08 11:48:08;;;;;;;15.25;7.22;;;5.20;51.90;;;;;;5062926;28;20047;-79
2021/03/08 11:50:36;;;;;;;10.05;5.72;;;5.20;51.80;;;;;;5063314;28;20066;-81
2021/03/08 11:53:03;;;;;;;7.20;3.90;;;5.20;51.70;;;;;;5065104;28;20029;-81
2021/03/08 11:55:29;;;;;;;8.95;4.28;;;5.30;51.80;;;;;;5064203;28;20031;-82
2021/03/08 11:57:55;;;;;;;12.40;6.97;;;5.40;51.80;;;;;;5064983;28;20017;-81
2021/03/08 12:00:24;;;;;;;10.27;5.85;;;5.40;51.80;;;;;;5061670;28;20382;-81
2021/03/08 12:02:50;;;;;;;10.13;5.55;;;5.60;51.90;;;;;;5064084;28;20020;-81
2021/03/08 12:05:16;;;;;;;14.80;8.00;;;5.60;52.00;;;;;;5066842;28;20067;-81
2021/03/08 12:07:43;;;;;;;9.00;5.10;;;5.80;52.20;;;;;;5062804;28;20025;-81
2021/03/08 12:10:12;;;;;;;6.95;3.45;;;5.90;52.30;;;;;;5065546;28;20108;-83
2021/03/08 12:12:38;;;;;;;6.22;3.10;;;6.10;52.40;;;;;;5063129;28;20040;-80
2021/03/08 12:15:09;;;;;;;8.60;4.68;;;6.30;52.30;;;;;;5061949;28;20039;-81
2021/03/08 12:17:35;;;;;;;12.75;5.80;;;6.30;51.90;;;;;;5063974;28;20017;-81
2021/03/08 12:20:03;;;;;;;10.15;5.00;;;6.30;51.70;;;;;;5061930;28;20032;-82
2021/03/08 12:22:29;;;;;;;15.32;7.85;;;6.30;52.00;;;;;;5062342;28;20024;-84
2021/03/08 12:24:55;;;;;;;5.90;3.33;;;6.40;52.30;;;;;;5054686;28;20434;-81
2021/03/08 12:27:21;;;;;;;7.10;5.30;;;6.30;51.80;;;;;;5063712;28;20494;-81
2021/03/08 12:29:47;;;;;;;7.53;4.13;;;6.20;51.50;;;;;;5061496;28;20040;-82
2021/03/08 12:32:12;;;;;;;7.63;3.88;;;6.10;51.60;;;;;;5053854;28;20021;-81
2021/03/08 12:34:41;;;;;;;7.55;4.07;;;6.00;51.50;;;;;;5054234;28;20025;-81
2021/03/08 12:37:07;;;;;;;6.25;3.72;;;6.00;51.60;;;;;;5053862;28;20021;-80
2021/03/08 12:39:32;;;;;;;5.97;3.20;;;6.10;51.40;;;;;;5054156;28;20025;-81
2021/03/08 12:41:58;;;;;;;4.68;2.90;;;6.10;51.00;;;;;;5052807;28;20100;-80
2021/03/08 12:44:24;;;;;;;7.13;3.40;;;6.10;51.40;;;;;;5053795;28;20021;-80
2021/03/08 12:46:49;;;;;;;9.63;3.60;;;6.50;52.40;;;;;;5053692;28;20025;-81
2021/03/08 12:49:15;;;;;;;6.00;2.83;;;7.50;52.30;;;;;;5072361;28;20021;-79
2021/03/08 12:51:41;;;;;;;8.77;3.90;;;7.90;50.10;;;;;;5074389;28;20039;-80
2021/03/08 12:54:07;;;;;;;11.75;3.65;;;7.90;48.60;;;;;;5074056;28;20028;-80
2021/03/08 12:56:32;;;;;;;6.53;3.10;;;7.80;48.30;;;;;;5073922;28;20483;-82
2021/03/08 12:58:58;;;;;;;6.47;3.10;;;8.60;49.70;;;;;;5073927;28;20351;-80
2021/03/08 13:01:24;;;;;;;7.53;3.47;;;10.00;49.20;;;;;;5073797;28;20362;-81